Agana Heights, GU

5:05 PM ChST on September 23, 2014 (GMT +1000)
Maite | Change Station
CLOSE
Current Station
Personal Weather Station
Location: Maite, GU
Elevation: 140 ft
Nearby Weather Stations

Elev 140 ft 13.48 °N, 144.76 °E | Updated 5 seconds ago

Mostly Cloudy
Mostly Cloudy
80.9 °F
Feels Like 88 °F
N
6.0
Wind Variable Wind from SW
Gusts 10.0 mph

Today
High -- | Low -- °F
--% Chance of Precip.
Yesterday
High -- | Low -- °F
Precip. -- in
6:10 AM 6:16 PM
Waning Crescent, 1% visible
Pressure 29.69 in
Visibility 10.0 miles
Clouds Mostly Cloudy 1400 ft
Mostly Cloudy 4500 ft
Mostly Cloudy 7000 ft
Heat Index 88 °F
Dew Point 78 °F
Humidity 90%
Rainfall 0.45 in
Snow Depth Not available.
UV 0.0 out of 12
Pollen Not available.
Air Quality Not available.
Flu Activity Not available.
METAR PGUM 230654Z 29007KT 10SM BKN014 BKN045 BKN070 28/26 A2971 RMK AO2 RAB26E50 SLP052 P0000 T02780256

More Conditions Fewer Conditions

Pressure 29.69 in
Visibility 10.0 miles
Clouds Mostly Cloudy 1400 ft
Mostly Cloudy 4500 ft
Mostly Cloudy 7000 ft
Heat Index 88 °F
Dew Point 78 °F
Humidity 90%
Rainfall 0.45 in
Snow Depth Not available.
UV 0.0 out of 12
Pollen Not available.
Air Quality Not available.
Flu Activity Not available.
METAR PGUM 230654Z 29007KT 10SM BKN014 BKN045 BKN070 28/26 A2971 RMK AO2 RAB26E50 SLP052 P0000 T02780256

More Conditions Fewer Conditions

10-Day Weather Forecast

Almanac

Astronomy

Sep. 23, 2014 Rise Set
Actual Time 6:10 AM ChST 6:16 PM ChST
Civil Twilight 5:48 AM ChST 6:38 PM ChST
Nautical Twilight 5:24 AM ChST 7:02 PM ChST
Astronomical Twilight 4:59 AM ChST 7:27 PM ChST
Moon 5:05 AM ChST 5:31 PM ChST
Length of Visible Light 12h 49m
Length of Day
12h 06m
Tomorrow will be 0m 44s shorter.
Waning Crescent, 1% of the Moon is Illuminated
Today
Waning Crescent
Sep 24
New
Oct 1
First Quarter
Oct 8
Full
Oct 15
Last Quarter

Community

WunderPhotos

Upload Photos

1,755,608 photos uploaded!

Nearby

Snow Depth

Station Depth Elevation
No new snow has been reported.

Earthquake Activity

City Distance Mag. Time & Date
No recent earthquake activity has been reported nearby.
Minimum magnitude displayed is 2.5.

Coastal Water Temperatures

Place Temperature
No Stations Reporting

Nearby Weather Stations